createdAt,value
2023-01-13T00:02:29.577Z,-1.02
2023-01-13T00:05:34.109Z,-0.62
2023-01-13T00:08:38.733Z,-1.00
2023-01-13T00:11:43.179Z,-0.62
2023-01-13T00:14:47.565Z,-0.75
2023-01-13T00:17:52.055Z,-0.92
2023-01-13T00:21:01.367Z,-1.34
2023-01-13T00:24:05.965Z,-1.25
2023-01-13T00:27:10.708Z,-1.13
2023-01-13T00:30:16.215Z,-0.80
2023-01-13T00:33:20.503Z,-0.84
2023-01-13T00:36:24.913Z,-1.05
2023-01-13T00:39:29.522Z,-0.86
2023-01-13T00:42:53.876Z,-0.84
2023-01-13T00:46:05.013Z,-0.91
2023-01-13T00:49:09.532Z,-1.06
2023-01-13T00:52:14.147Z,-0.53
2023-01-13T00:55:18.770Z,-0.69
2023-01-13T00:58:23.166Z,-0.70
2023-01-13T01:01:27.836Z,-0.39
2023-01-13T01:58:22.671Z,-1.17
2023-01-13T02:01:27.498Z,-1.33
2023-01-13T02:04:51.332Z,-1.36
2023-01-13T02:08:00.609Z,-1.34
2023-01-13T02:11:28.049Z,-1.31
2023-01-13T02:14:35.331Z,-1.35
2023-01-13T02:18:27.478Z,-1.10
2023-01-13T02:21:57.811Z,-0.89
2023-01-13T02:25:23.967Z,-0.97
2023-01-13T02:29:14.148Z,-0.94
2023-01-13T02:32:41.312Z,-1.35
2023-01-13T02:36:03.963Z,-1.29
2023-01-13T02:39:24.567Z,-1.04
2023-01-13T02:42:50.047Z,-0.79
2023-01-13T02:46:02.693Z,-0.70
2023-01-13T02:49:12.269Z,-0.83
2023-01-13T02:52:47.093Z,-1.02
2023-01-13T02:55:55.421Z,-0.80
2023-01-13T02:59:02.101Z,-0.77
2023-01-13T03:02:09.804Z,-0.68
2023-01-13T03:05:18.396Z,-0.79
2023-01-13T03:08:43.691Z,-1.11
2023-01-13T03:12:04.680Z,-0.98
2023-01-13T03:15:30.655Z,-1.04
2023-01-13T03:18:48.460Z,-1.88
2023-01-13T03:22:43.814Z,-1.62
2023-01-13T03:26:27.842Z,-1.52
2023-01-13T03:29:41.398Z,-1.54
2023-01-13T03:32:50.412Z,-1.59
2023-01-13T03:36:00.263Z,-1.69
2023-01-13T03:39:21.337Z,-1.88
2023-01-13T03:42:30.148Z,-2.04
2023-01-13T03:45:37.402Z,-1.39
2023-01-13T03:48:45.895Z,-1.27
2023-01-13T03:51:59.554Z,-1.57
2023-01-13T03:55:11.078Z,-1.80
2023-01-13T03:58:18.294Z,-2.26
2023-01-13T04:02:10.567Z,-1.79
2023-01-13T04:05:16.264Z,-1.80
2023-01-13T04:08:29.454Z,-1.67
2023-01-13T04:11:42.094Z,-1.77
2023-01-13T04:14:47.524Z,-2.28
2023-01-13T04:17:53.143Z,-2.14
2023-01-13T04:21:03.119Z,-2.30
2023-01-13T04:24:07.860Z,-2.55
2023-01-13T04:27:12.900Z,-1.83
2023-01-13T04:30:17.672Z,-1.92
2023-01-13T04:33:22.301Z,-1.65
2023-01-13T04:36:28.570Z,-1.44
2023-01-13T04:39:33.044Z,-1.57
2023-01-13T04:42:37.503Z,-1.95
2023-01-13T04:45:42.114Z,-2.35
2023-01-13T04:48:46.534Z,-2.59
2023-01-13T04:51:50.977Z,-2.74
2023-01-13T04:54:55.732Z,-2.89
2023-01-13T04:58:12.051Z,-2.84
2023-01-13T05:01:16.405Z,-2.38
2023-01-13T05:04:23.746Z,-2.65
2023-01-13T05:07:28.592Z,-2.55
2023-01-13T05:10:33.228Z,-2.41
2023-01-13T05:13:55.929Z,-2.34
2023-01-13T05:17:04.164Z,-2.57
2023-01-13T05:20:09.635Z,-2.04
2023-01-13T05:23:32.703Z,-2.40
2023-01-13T05:26:38.690Z,-2.92
2023-01-13T05:29:43.395Z,-2.47
2023-01-13T05:32:48.164Z,-2.82
2023-01-13T05:35:52.994Z,-2.71
2023-01-13T05:38:57.431Z,-2.95
2023-01-13T05:42:20.397Z,-2.87
2023-01-13T05:45:25.594Z,-2.93
2023-01-13T05:48:41.378Z,-3.23
2023-01-13T05:51:46.036Z,-3.31
2023-01-13T05:54:51.864Z,-3.47
2023-01-13T05:57:56.385Z,-3.80
2023-01-13T06:01:02.701Z,-4.32
2023-01-13T06:04:07.310Z,-4.73
2023-01-13T06:07:13.532Z,-4.38
2023-01-13T06:10:19.582Z,-4.54
2023-01-13T06:13:26.164Z,-4.54
2023-01-13T06:16:30.548Z,-4.59
2023-01-13T06:19:35.100Z,-4.78
2023-01-13T06:22:45.168Z,-4.53
2023-01-13T06:26:01.647Z,-4.60
2023-01-13T06:29:07.151Z,-4.94
2023-01-13T06:32:21.652Z,-5.03
2023-01-13T06:35:31.370Z,-5.48
2023-01-13T06:38:39.156Z,-5.32
2023-01-13T06:42:02.405Z,-5.61
2023-01-13T06:45:07.220Z,-5.55
2023-01-13T06:48:11.684Z,-5.74
2023-01-13T06:51:16.132Z,-5.81
2023-01-13T06:54:20.493Z,-5.87
2023-01-13T06:57:25.770Z,-6.37
2023-01-13T07:00:33.115Z,-6.69
2023-01-13T07:03:37.661Z,-6.60
2023-01-13T07:06:42.081Z,-7.23
2023-01-13T07:09:46.724Z,-7.04
2023-01-13T07:13:10.739Z,-7.14
2023-01-13T07:16:15.106Z,-7.39
2023-01-13T07:19:24.491Z,-7.22
2023-01-13T07:22:28.959Z,-7.52
2023-01-13T07:25:33.621Z,-7.71
2023-01-13T07:28:39.222Z,-7.73
2023-01-13T07:31:43.425Z,-7.53
2023-01-13T07:34:47.893Z,-7.54
2023-01-13T07:37:52.548Z,-7.97
2023-01-13T07:40:57.345Z,-8.37
2023-01-13T07:44:05.593Z,-8.31
2023-01-13T07:47:11.999Z,-7.99
2023-01-13T07:50:16.619Z,-8.22
2023-01-13T07:53:21.059Z,-8.19
2023-01-13T07:56:25.366Z,-8.03
2023-01-13T07:59:30.201Z,-7.85
2023-01-13T08:02:34.904Z,-7.86
2023-01-13T08:05:39.609Z,-8.20
2023-01-13T08:08:44.073Z,-8.06
2023-01-13T08:12:08.209Z,-8.13
2023-01-13T08:15:12.778Z,-8.32
2023-01-13T08:18:21.495Z,-8.10
2023-01-13T08:21:26.113Z,-8.32
2023-01-13T08:24:30.499Z,-8.27
2023-01-13T08:27:35.278Z,-8.17
2023-01-13T08:30:42.338Z,-8.33
2023-01-13T08:33:47.815Z,-8.33
2023-01-13T08:36:52.174Z,-8.69
2023-01-13T08:39:56.462Z,-8.61
2023-01-13T08:43:01.362Z,-8.49
2023-01-13T08:46:06.029Z,-8.85
2023-01-13T08:49:10.477Z,-8.64
2023-01-13T08:52:15.280Z,-8.78
2023-01-13T08:55:19.920Z,-8.87
2023-01-13T08:58:24.555Z,-9.56
2023-01-13T09:01:29.519Z,-9.19
2023-01-13T09:04:33.999Z,-9.19
2023-01-13T09:07:39.921Z,-9.30
2023-01-13T09:10:44.572Z,-9.14
2023-01-13T09:13:49.071Z,-9.13
2023-01-13T09:16:53.651Z,-9.43
2023-01-13T09:19:58.451Z,-9.31
2023-01-13T09:23:03.045Z,-9.23
2023-01-13T09:26:07.843Z,-9.30
2023-01-13T09:29:13.609Z,-9.57
2023-01-13T09:32:18.176Z,-9.46
2023-01-13T09:35:22.611Z,-9.61
2023-01-13T09:38:29.980Z,-9.71
2023-01-13T09:41:58.097Z,-9.98
2023-01-13T09:45:08.319Z,-9.96
2023-01-13T09:48:30.455Z,-10.12
2023-01-13T09:51:46.538Z,-10.05
2023-01-13T09:54:57.088Z,-9.81
2023-01-13T09:58:11.214Z,-10.07
2023-01-13T10:01:38.476Z,-10.56
2023-01-13T10:04:44.102Z,-10.52
2023-01-13T10:07:54.992Z,-10.70
2023-01-13T10:11:06.569Z,-10.78
2023-01-13T10:14:20.140Z,-10.64
2023-01-13T10:17:59.460Z,-10.65
2023-01-13T10:22:02.129Z,-10.48
2023-01-13T10:25:52.231Z,-10.65
2023-01-13T10:28:58.951Z,-10.47
2023-01-13T10:32:03.514Z,-10.72
2023-01-13T10:35:10.310Z,-10.95
2023-01-13T10:38:22.890Z,-10.36
2023-01-13T10:41:29.018Z,-10.92
2023-01-13T10:44:40.549Z,-10.59
2023-01-13T10:48:07.841Z,-10.85
2023-01-13T10:51:15.704Z,-10.77
2023-01-13T10:54:25.322Z,-10.61
2023-01-13T10:57:29.924Z,-10.74
2023-01-13T11:00:35.939Z,-10.54
2023-01-13T11:03:46.160Z,-10.63
2023-01-13T11:06:52.268Z,-11.08
2023-01-13T11:10:19.934Z,-11.14
2023-01-13T11:14:04.432Z,-11.31
2023-01-13T11:17:29.003Z,-11.14
2023-01-13T11:20:42.276Z,-11.19
2023-01-13T11:23:54.680Z,-10.96
2023-01-13T11:27:05.796Z,-10.96
2023-01-13T11:30:22.041Z,-10.56
2023-01-13T11:33:29.328Z,-10.84
2023-01-13T11:36:46.952Z,-10.82
2023-01-13T11:39:55.113Z,-10.83
2023-01-13T11:43:28.220Z,-10.81
2023-01-13T11:46:33.574Z,-11.00
2023-01-13T11:49:39.394Z,-10.70
2023-01-13T11:53:03.747Z,-10.82
2023-01-13T11:56:46.634Z,-11.41
2023-01-13T12:00:15.299Z,-11.17
2023-01-13T12:03:33.405Z,-11.29
2023-01-13T12:06:41.066Z,-11.58
2023-01-13T12:10:27.025Z,-11.43
2023-01-13T12:13:47.728Z,-12.07
2023-01-13T12:16:52.494Z,-11.33
2023-01-13T12:19:57.413Z,-11.19
2023-01-13T12:23:07.472Z,-11.60
2023-01-13T12:26:17.529Z,-11.91
2023-01-13T12:29:27.293Z,-11.63
2023-01-13T12:32:39.343Z,-12.18
2023-01-13T12:36:15.615Z,-12.11
2023-01-13T12:39:19.998Z,-11.29
2023-01-13T12:42:52.343Z,-11.57
2023-01-13T12:46:22.356Z,-11.95
2023-01-13T12:49:33.117Z,-11.92
2023-01-13T12:52:47.314Z,-11.86
2023-01-13T12:55:55.042Z,-12.21
2023-01-13T12:59:18.403Z,-12.23
2023-01-13T13:02:29.544Z,-12.18
2023-01-13T13:05:51.508Z,-11.95
2023-01-13T13:09:30.555Z,-12.14
2023-01-13T13:13:02.981Z,-11.87
2023-01-13T13:16:26.485Z,-12.01
2023-01-13T13:19:34.687Z,-11.66
2023-01-13T13:22:52.221Z,-12.04
2023-01-13T13:26:33.237Z,-12.57
2023-01-13T13:30:05.336Z,-12.57
2023-01-13T13:33:15.673Z,-12.55
2023-01-13T13:36:47.808Z,-12.25
2023-01-13T13:40:11.025Z,-12.87
2023-01-13T13:43:35.608Z,-12.70
2023-01-13T13:46:47.937Z,-12.30
2023-01-13T13:49:57.739Z,-12.17
2023-01-13T13:53:09.295Z,-12.43
2023-01-13T13:56:21.320Z,-12.37
2023-01-13T13:59:31.305Z,-12.29
2023-01-13T14:02:38.828Z,-12.34
2023-01-13T14:05:55.586Z,-12.01
2023-01-13T14:09:00.324Z,-12.33
2023-01-13T14:12:09.895Z,-12.22
2023-01-13T14:15:29.826Z,-11.92
2023-01-13T14:18:45.850Z,-11.98
2023-01-13T14:21:50.241Z,-11.95
2023-01-13T14:24:58.851Z,-12.10
2023-01-13T14:28:26.156Z,-11.81
2023-01-13T14:31:31.708Z,-12.21
2023-01-13T14:34:38.608Z,-12.10
2023-01-13T14:37:44.604Z,-12.12
2023-01-13T14:40:50.302Z,-12.20
2023-01-13T14:43:58.379Z,-12.36
2023-01-13T14:47:06.287Z,-12.30
2023-01-13T14:50:13.556Z,-11.89
2023-01-13T14:53:48.414Z,-12.77
2023-01-13T14:57:28.620Z,-12.74
2023-01-13T15:00:33.782Z,-13.33
2023-01-13T15:03:42.816Z,-12.87
2023-01-13T15:06:49.099Z,-13.35
2023-01-13T15:10:05.624Z,-13.01
2023-01-13T15:13:36.258Z,-13.33
2023-01-13T15:16:40.523Z,-13.02
2023-01-13T15:19:45.172Z,-13.13
2023-01-13T15:22:50.456Z,-13.43
2023-01-13T15:25:55.627Z,-13.88
2023-01-13T15:29:01.622Z,-13.26
2023-01-13T15:32:06.459Z,-13.47
2023-01-13T15:35:18.567Z,-13.19
2023-01-13T15:38:25.404Z,-13.28
2023-01-13T15:41:51.398Z,-13.53
2023-01-13T15:45:14.613Z,-13.26
2023-01-13T15:48:22.031Z,-13.20
2023-01-13T15:51:26.720Z,-13.97
2023-01-13T15:54:31.645Z,-14.04
2023-01-13T15:57:39.056Z,-14.39
2023-01-13T16:00:44.054Z,-13.44
2023-01-13T16:03:48.496Z,-13.70
2023-01-13T16:06:53.119Z,-13.80
2023-01-13T16:09:57.748Z,-13.50
2023-01-13T16:13:02.583Z,-14.37
2023-01-13T16:16:20.647Z,-13.55
2023-01-13T16:19:24.997Z,-13.47
2023-01-13T16:22:29.445Z,-13.83
2023-01-13T16:25:34.200Z,-13.76
2023-01-13T16:28:38.665Z,-14.10
2023-01-13T16:31:42.977Z,-13.67
2023-01-13T16:34:47.795Z,-14.16
2023-01-13T16:37:54.644Z,-14.51
2023-01-13T16:40:59.242Z,-14.31
2023-01-13T16:44:06.847Z,-14.32
2023-01-13T16:47:17.293Z,-14.32
2023-01-13T16:50:29.473Z,-13.94
2023-01-13T16:53:33.913Z,-13.91
2023-01-13T16:56:39.044Z,-14.48
2023-01-13T16:59:43.292Z,-14.67
2023-01-13T17:02:48.188Z,-14.67
2023-01-13T17:05:52.737Z,-14.65
2023-01-13T17:09:05.998Z,-14.43
2023-01-13T17:12:12.473Z,-14.66
2023-01-13T17:15:19.429Z,-14.75
2023-01-13T17:18:23.783Z,-14.77
2023-01-13T17:21:28.348Z,-14.88
2023-01-13T17:24:36.018Z,-15.17
2023-01-13T17:27:40.577Z,-14.97
2023-01-13T17:30:45.565Z,-15.08
2023-01-13T17:33:49.895Z,-14.83
2023-01-13T17:36:54.336Z,-14.93
2023-01-13T17:39:58.859Z,-14.84
2023-01-13T17:43:03.442Z,-14.49
2023-01-13T17:46:10.566Z,-14.43
2023-01-13T17:49:22.615Z,-14.77
2023-01-13T17:52:27.285Z,-14.90
2023-01-13T17:55:31.807Z,-14.92
2023-01-13T17:58:36.635Z,-15.09
2023-01-13T18:01:41.702Z,-15.31
2023-01-13T18:04:46.532Z,-15.13
2023-01-13T18:07:52.160Z,-14.95
2023-01-13T18:10:58.668Z,-15.30
2023-01-13T18:14:03.021Z,-15.39
2023-01-13T18:17:07.802Z,-15.36
2023-01-13T18:20:35.185Z,-15.25
2023-01-13T18:23:58.085Z,-15.39
2023-01-13T18:27:24.493Z,-15.23
2023-01-13T18:30:29.706Z,-15.20
2023-01-13T18:33:37.357Z,-15.52
2023-01-13T18:36:41.744Z,-15.03
2023-01-13T18:39:46.193Z,-15.20
2023-01-13T18:42:55.321Z,-15.45
2023-01-13T18:45:59.890Z,-15.97
2023-01-13T18:49:04.369Z,-15.92
2023-01-13T18:52:08.899Z,-15.89
2023-01-13T18:55:13.791Z,-15.83
2023-01-13T18:58:18.214Z,-15.98
2023-01-13T19:01:26.634Z,-15.54
2023-01-13T19:04:33.766Z,-15.97
2023-01-13T19:07:38.349Z,-16.98
2023-01-13T19:10:42.894Z,-16.62
2023-01-13T19:13:48.228Z,-16.57
2023-01-13T19:16:52.228Z,-16.78
2023-01-13T19:19:59.267Z,-16.96
2023-01-13T19:23:03.636Z,-16.84
2023-01-13T19:26:11.144Z,-16.95
2023-01-13T19:29:15.893Z,-17.23
2023-01-13T19:32:21.040Z,-17.19
2023-01-13T19:35:26.504Z,-16.61
2023-01-13T19:38:31.013Z,-16.95
2023-01-13T19:41:57.000Z,-16.53
2023-01-13T19:45:20.034Z,-16.99
2023-01-13T19:48:24.710Z,-17.14
2023-01-13T19:51:31.123Z,-17.35
2023-01-13T19:54:35.990Z,-17.49
2023-01-13T19:57:41.321Z,-17.19
2023-01-13T20:00:49.281Z,-17.75
2023-01-13T20:03:53.692Z,-17.92
2023-01-13T20:06:58.321Z,-17.41
2023-01-13T20:10:03.279Z,-17.62
2023-01-13T20:13:08.878Z,-17.71
2023-01-13T20:16:13.244Z,-17.65
2023-01-13T20:19:17.612Z,-17.53
2023-01-13T20:22:22.082Z,-17.68
2023-01-13T20:25:29.475Z,-17.69
2023-01-13T20:28:37.860Z,-18.13
2023-01-13T20:31:42.057Z,-18.47
2023-01-13T20:34:46.586Z,-18.07
2023-01-13T20:37:51.083Z,-17.84
2023-01-13T20:41:22.784Z,-18.05
2023-01-13T20:44:27.632Z,-17.68
2023-01-13T20:47:32.303Z,-17.72
2023-01-13T20:50:36.971Z,-18.34
2023-01-13T20:53:42.375Z,-18.39
2023-01-13T20:56:46.935Z,-18.42
2023-01-13T20:59:51.568Z,-18.68
2023-01-13T21:02:55.908Z,-18.70
2023-01-13T21:06:00.231Z,-18.66
2023-01-13T21:09:04.752Z,-18.74
2023-01-13T21:12:28.493Z,-18.73
2023-01-13T21:15:34.014Z,-18.82
2023-01-13T21:18:57.321Z,-19.05
2023-01-13T21:22:01.803Z,-18.85
2023-01-13T21:25:07.275Z,-19.11
2023-01-13T21:28:12.882Z,-19.04
2023-01-13T21:31:18.176Z,-19.11
2023-01-13T21:34:22.652Z,-19.14
2023-01-13T21:37:27.057Z,-19.30
2023-01-13T21:40:31.378Z,-19.47
2023-01-13T21:43:56.277Z,-19.51
2023-01-13T21:47:19.071Z,-19.89
2023-01-13T21:50:29.317Z,-19.96
2023-01-13T21:53:33.478Z,-20.08
2023-01-13T21:56:37.963Z,-19.66
2023-01-13T21:59:42.433Z,-19.85
2023-01-13T22:02:47.127Z,-19.80
2023-01-13T22:05:56.589Z,-19.96
2023-01-13T22:09:01.910Z,-19.67
2023-01-13T22:12:06.796Z,-19.57
2023-01-13T22:15:13.323Z,-19.69
2023-01-13T22:18:19.000Z,-19.96
2023-01-13T22:21:23.569Z,-20.23
2023-01-13T22:24:30.989Z,-20.24
2023-01-13T22:27:45.188Z,-19.90
2023-01-13T22:30:50.691Z,-20.32
2023-01-13T22:33:56.944Z,-21.58
2023-01-13T22:37:02.543Z,-19.99
2023-01-13T22:40:08.958Z,-20.19
2023-01-13T22:43:13.427Z,-20.41
2023-01-13T22:46:18.157Z,-20.43
2023-01-13T22:49:26.392Z,-20.69
2023-01-13T22:52:31.137Z,-20.35
2023-01-13T22:55:35.545Z,-20.72
2023-01-13T22:58:41.988Z,-20.69
2023-01-13T23:01:46.312Z,-20.54
2023-01-13T23:04:51.465Z,-20.10
2023-01-13T23:07:55.523Z,-20.11
2023-01-13T23:11:07.950Z,-20.02
2023-01-13T23:14:13.921Z,-20.63
2023-01-13T23:17:18.818Z,-20.54
2023-01-13T23:20:23.383Z,-20.38
2023-01-13T23:23:27.920Z,-20.12
2023-01-13T23:26:33.943Z,-20.29
2023-01-13T23:29:40.964Z,-20.78
2023-01-13T23:32:46.477Z,-20.18
2023-01-13T23:36:17.403Z,-20.31
2023-01-13T23:39:21.471Z,-19.62
2023-01-13T23:42:50.279Z,-19.12
2023-01-13T23:46:03.312Z,-18.34
2023-01-13T23:49:14.169Z,-18.15
2023-01-13T23:52:38.438Z,-18.09
2023-01-13T23:56:09.055Z,-18.00
2023-01-13T23:59:13.873Z,-18.66
